sensor_id;sensor_type;location;lat;lon;timestamp;temperature;humidity
23116;DHT22;11727;52.134;5.052;2023-06-01T00:00:50;11.80;99.90
23116;DHT22;11727;52.134;5.052;2023-06-01T00:03:16;11.80;99.90
23116;DHT22;11727;52.134;5.052;2023-06-01T00:05:42;11.80;99.90
23116;DHT22;11727;52.134;5.052;2023-06-01T00:08:07;11.70;99.90
23116;DHT22;11727;52.134;5.052;2023-06-01T00:10:33;11.70;99.90
23116;DHT22;11727;52.134;5.052;2023-06-01T00:12:58;11.60;99.90
23116;DHT22;11727;52.134;5.052;2023-06-01T00:15:24;11.60;99.90
23116;DHT22;11727;52.134;5.052;2023-06-01T00:17:50;11.50;99.90
23116;DHT22;11727;52.134;5.052;2023-06-01T00:20:17;11.50;99.90
23116;DHT22;11727;52.134;5.052;2023-06-01T00:22:43;11.50;99.90
23116;DHT22;11727;52.134;5.052;2023-06-01T00:25:09;11.50;99.90
23116;DHT22;11727;52.134;5.052;2023-06-01T00:27:36;11.40;99.90
23116;DHT22;11727;52.134;5.052;2023-06-01T00:30:03;11.40;99.90
23116;DHT22;11727;52.134;5.052;2023-06-01T00:32:28;11.40;99.90
23116;DHT22;11727;52.134;5.052;2023-06-01T00:34:54;11.50;99.90
23116;DHT22;11727;52.134;5.052;2023-06-01T00:37:19;11.50;99.90
23116;DHT22;11727;52.134;5.052;2023-06-01T00:39:45;11.40;99.90
23116;DHT22;11727;52.134;5.052;2023-06-01T00:42:11;11.40;99.90
23116;DHT22;11727;52.134;5.052;2023-06-01T00:44:36;11.40;99.90
23116;DHT22;11727;52.134;5.052;2023-06-01T00:47:02;11.40;99.90
23116;DHT22;11727;52.134;5.052;2023-06-01T00:49:28;11.40;99.90
23116;DHT22;11727;52.134;5.052;2023-06-01T00:51:54;11.40;99.90
23116;DHT22;11727;52.134;5.052;2023-06-01T00:54:20;11.40;99.90
23116;DHT22;11727;52.134;5.052;2023-06-01T00:56:46;11.40;99.90
23116;DHT22;11727;52.134;5.052;2023-06-01T00:59:12;11.40;99.90
23116;DHT22;11727;52.134;5.052;2023-06-01T01:01:38;11.40;99.90
23116;DHT22;11727;52.134;5.052;2023-06-01T01:04:04;11.50;99.90
23116;DHT22;11727;52.134;5.052;2023-06-01T01:12:13;11.40;99.90
23116;DHT22;11727;52.134;5.052;2023-06-01T01:14:50;11.50;99.90
23116;DHT22;11727;52.134;5.052;2023-06-01T01:17:35;11.50;99.90
23116;DHT22;11727;52.134;5.052;2023-06-01T01:20:34;11.50;99.90
23116;DHT22;11727;52.134;5.052;2023-06-01T01:23:13;11.50;99.90
23116;DHT22;11727;52.134;5.052;2023-06-01T01:28:49;11.60;99.90
23116;DHT22;11727;52.134;5.052;2023-06-01T01:31:23;11.60;99.90
23116;DHT22;11727;52.134;5.052;2023-06-01T01:33:51;11.50;99.90
23116;DHT22;11727;52.134;5.052;2023-06-01T01:36:18;11.50;99.90
23116;DHT22;11727;52.134;5.052;2023-06-01T01:38:44;11.50;99.90
23116;DHT22;11727;52.134;5.052;2023-06-01T01:41:10;11.50;99.90
23116;DHT22;11727;52.134;5.052;2023-06-01T01:43:36;11.50;99.90
23116;DHT22;11727;52.134;5.052;2023-06-01T01:46:22;11.40;99.90
23116;DHT22;11727;52.134;5.052;2023-06-01T01:49:03;11.50;99.90
23116;DHT22;11727;52.134;5.052;2023-06-01T01:52:05;11.40;99.90
23116;DHT22;11727;52.134;5.052;2023-06-01T01:54:37;11.40;99.90
23116;DHT22;11727;52.134;5.052;2023-06-01T01:57:04;11.50;99.90
23116;DHT22;11727;52.134;5.052;2023-06-01T01:59:31;11.50;99.90
23116;DHT22;11727;52.134;5.052;2023-06-01T02:01:58;11.50;99.90
23116;DHT22;11727;52.134;5.052;2023-06-01T02:04:24;11.50;99.90
23116;DHT22;11727;52.134;5.052;2023-06-01T02:06:50;11.50;99.90
23116;DHT22;11727;52.134;5.052;2023-06-01T02:09:15;11.60;99.90
23116;DHT22;11727;52.134;5.052;2023-06-01T02:11:41;11.60;99.90
23116;DHT22;11727;52.134;5.052;2023-06-01T02:14:07;11.60;99.90
23116;DHT22;11727;52.134;5.052;2023-06-01T02:16:32;11.60;99.90
23116;DHT22;11727;52.134;5.052;2023-06-01T02:18:58;11.60;99.90
23116;DHT22;11727;52.134;5.052;2023-06-01T02:21:25;11.60;99.90
23116;DHT22;11727;52.134;5.052;2023-06-01T02:23:51;11.60;99.90
23116;DHT22;11727;52.134;5.052;2023-06-01T02:26:17;11.60;99.90
23116;DHT22;11727;52.134;5.052;2023-06-01T02:28:43;11.60;99.90
23116;DHT22;11727;52.134;5.052;2023-06-01T02:31:09;11.60;99.90
23116;DHT22;11727;52.134;5.052;2023-06-01T02:33:35;11.60;99.90
23116;DHT22;11727;52.134;5.052;2023-06-01T02:36:01;11.50;99.90
23116;DHT22;11727;52.134;5.052;2023-06-01T02:38:27;11.50;99.90
23116;DHT22;11727;52.134;5.052;2023-06-01T02:40:53;11.50;99.90
23116;DHT22;11727;52.134;5.052;2023-06-01T02:43:19;11.50;99.90
23116;DHT22;11727;52.134;5.052;2023-06-01T02:45:44;11.50;99.90
23116;DHT22;11727;52.134;5.052;2023-06-01T02:48:10;11.50;99.90
23116;DHT22;11727;52.134;5.052;2023-06-01T02:50:36;11.50;99.90
23116;DHT22;11727;52.134;5.052;2023-06-01T02:53:02;11.50;99.90
23116;DHT22;11727;52.134;5.052;2023-06-01T02:55:27;11.50;99.90
23116;DHT22;11727;52.134;5.052;2023-06-01T02:57:53;11.50;99.90
23116;DHT22;11727;52.134;5.052;2023-06-01T03:00:18;11.50;99.90
23116;DHT22;11727;52.134;5.052;2023-06-01T03:02:45;11.50;99.90
23116;DHT22;11727;52.134;5.052;2023-06-01T03:05:11;11.40;99.90
23116;DHT22;11727;52.134;5.052;2023-06-01T03:07:46;11.50;99.90
23116;DHT22;11727;52.134;5.052;2023-06-01T03:10:12;11.50;99.90
23116;DHT22;11727;52.134;5.052;2023-06-01T03:12:38;11.50;99.90
23116;DHT22;11727;52.134;5.052;2023-06-01T03:15:04;11.50;99.90
23116;DHT22;11727;52.134;5.052;2023-06-01T03:17:31;11.50;99.90
23116;DHT22;11727;52.134;5.052;2023-06-01T03:19:57;11.50;99.90
23116;DHT22;11727;52.134;5.052;2023-06-01T03:22:23;11.50;99.90
23116;DHT22;11727;52.134;5.052;2023-06-01T03:24:49;11.40;99.90
23116;DHT22;11727;52.134;5.052;2023-06-01T03:27:20;11.40;99.90
23116;DHT22;11727;52.134;5.052;2023-06-01T03:29:46;11.40;99.90
23116;DHT22;11727;52.134;5.052;2023-06-01T03:32:13;11.40;99.90
23116;DHT22;11727;52.134;5.052;2023-06-01T03:34:39;11.40;99.90
23116;DHT22;11727;52.134;5.052;2023-06-01T03:37:07;11.30;99.90
23116;DHT22;11727;52.134;5.052;2023-06-01T03:39:33;11.40;99.90
23116;DHT22;11727;52.134;5.052;2023-06-01T03:42:00;11.30;99.90
23116;DHT22;11727;52.134;5.052;2023-06-01T03:44:26;11.30;99.90
23116;DHT22;11727;52.134;5.052;2023-06-01T03:46:51;11.30;99.90
23116;DHT22;11727;52.134;5.052;2023-06-01T03:49:17;11.40;99.90
23116;DHT22;11727;52.134;5.052;2023-06-01T03:51:43;11.40;99.90
23116;DHT22;11727;52.134;5.052;2023-06-01T03:54:12;11.40;99.90
23116;DHT22;11727;52.134;5.052;2023-06-01T03:56:38;11.40;99.90
23116;DHT22;11727;52.134;5.052;2023-06-01T03:59:03;11.40;99.90
23116;DHT22;11727;52.134;5.052;2023-06-01T04:01:29;11.40;99.90
23116;DHT22;11727;52.134;5.052;2023-06-01T04:03:56;11.40;99.90
23116;DHT22;11727;52.134;5.052;2023-06-01T04:06:22;11.40;99.90
23116;DHT22;11727;52.134;5.052;2023-06-01T04:08:49;11.50;99.90
23116;DHT22;11727;52.134;5.052;2023-06-01T04:11:20;11.50;99.90
23116;DHT22;11727;52.134;5.052;2023-06-01T04:13:47;11.50;99.90
23116;DHT22;11727;52.134;5.052;2023-06-01T04:16:14;11.50;99.90
23116;DHT22;11727;52.134;5.052;2023-06-01T04:18:40;11.50;99.90
23116;DHT22;11727;52.134;5.052;2023-06-01T04:21:06;11.50;99.90
23116;DHT22;11727;52.134;5.052;2023-06-01T04:23:34;11.50;99.90
23116;DHT22;11727;52.134;5.052;2023-06-01T04:26:01;11.60;99.90
23116;DHT22;11727;52.134;5.052;2023-06-01T04:28:27;11.60;99.90
23116;DHT22;11727;52.134;5.052;2023-06-01T04:30:53;11.60;99.90
23116;DHT22;11727;52.134;5.052;2023-06-01T04:33:20;11.70;99.90
23116;DHT22;11727;52.134;5.052;2023-06-01T04:35:48;11.70;99.90
23116;DHT22;11727;52.134;5.052;2023-06-01T04:38:13;11.70;99.90
23116;DHT22;11727;52.134;5.052;2023-06-01T04:40:43;11.70;99.90
23116;DHT22;11727;52.134;5.052;2023-06-01T04:43:10;11.80;99.90
23116;DHT22;11727;52.134;5.052;2023-06-01T04:45:37;11.80;99.90
23116;DHT22;11727;52.134;5.052;2023-06-01T04:48:04;11.70;99.90
23116;DHT22;11727;52.134;5.052;2023-06-01T04:50:34;11.70;99.90
23116;DHT22;11727;52.134;5.052;2023-06-01T04:53:00;11.70;99.90
23116;DHT22;11727;52.134;5.052;2023-06-01T04:55:26;11.80;99.90
23116;DHT22;11727;52.134;5.052;2023-06-01T04:57:52;11.80;99.90
23116;DHT22;11727;52.134;5.052;2023-06-01T05:00:18;11.80;99.90
23116;DHT22;11727;52.134;5.052;2023-06-01T05:02:46;11.80;99.90
23116;DHT22;11727;52.134;5.052;2023-06-01T05:05:14;11.80;99.90
23116;DHT22;11727;52.134;5.052;2023-06-01T05:07:40;11.90;99.90
23116;DHT22;11727;52.134;5.052;2023-06-01T05:10:10;11.90;99.90
23116;DHT22;11727;52.134;5.052;2023-06-01T05:12:37;11.90;99.90
23116;DHT22;11727;52.134;5.052;2023-06-01T05:15:04;11.90;99.90
23116;DHT22;11727;52.134;5.052;2023-06-01T05:17:30;11.90;99.90
23116;DHT22;11727;52.134;5.052;2023-06-01T05:19:56;12.00;99.90
23116;DHT22;11727;52.134;5.052;2023-06-01T05:22:24;12.00;99.90
23116;DHT22;11727;52.134;5.052;2023-06-01T05:24:54;12.00;99.90
23116;DHT22;11727;52.134;5.052;2023-06-01T05:27:20;12.00;99.90
23116;DHT22;11727;52.134;5.052;2023-06-01T05:29:46;12.10;99.90
23116;DHT22;11727;52.134;5.052;2023-06-01T05:32:12;12.10;99.90
23116;DHT22;11727;52.134;5.052;2023-06-01T05:34:38;12.10;99.90
23116;DHT22;11727;52.134;5.052;2023-06-01T05:37:03;12.20;99.90
23116;DHT22;11727;52.134;5.052;2023-06-01T05:39:30;12.20;99.90
23116;DHT22;11727;52.134;5.052;2023-06-01T05:41:55;12.20;99.90
23116;DHT22;11727;52.134;5.052;2023-06-01T05:44:21;12.30;99.90
23116;DHT22;11727;52.134;5.052;2023-06-01T05:46:47;12.30;99.90
23116;DHT22;11727;52.134;5.052;2023-06-01T05:49:13;12.30;99.90
23116;DHT22;11727;52.134;5.052;2023-06-01T05:51:40;12.40;99.90
23116;DHT22;11727;52.134;5.052;2023-06-01T05:54:06;12.40;99.90
23116;DHT22;11727;52.134;5.052;2023-06-01T05:56:32;12.40;99.90
23116;DHT22;11727;52.134;5.052;2023-06-01T05:58:59;12.50;99.90
23116;DHT22;11727;52.134;5.052;2023-06-01T06:01:24;12.50;99.90
23116;DHT22;11727;52.134;5.052;2023-06-01T06:03:52;12.50;99.90
23116;DHT22;11727;52.134;5.052;2023-06-01T06:06:18;12.50;99.90
23116;DHT22;11727;52.134;5.052;2023-06-01T06:08:46;12.50;99.90
23116;DHT22;11727;52.134;5.052;2023-06-01T06:11:11;12.50;99.90
23116;DHT22;11727;52.134;5.052;2023-06-01T06:13:37;12.50;99.90
23116;DHT22;11727;52.134;5.052;2023-06-01T06:16:03;12.50;99.90
23116;DHT22;11727;52.134;5.052;2023-06-01T06:18:28;12.50;99.90
23116;DHT22;11727;52.134;5.052;2023-06-01T06:20:54;12.60;99.90
23116;DHT22;11727;52.134;5.052;2023-06-01T06:23:20;12.60;99.90
23116;DHT22;11727;52.134;5.052;2023-06-01T06:25:46;12.70;99.90
23116;DHT22;11727;52.134;5.052;2023-06-01T06:28:14;12.70;99.90
23116;DHT22;11727;52.134;5.052;2023-06-01T06:30:39;12.70;99.90
23116;DHT22;11727;52.134;5.052;2023-06-01T06:33:05;12.80;99.90
23116;DHT22;11727;52.134;5.052;2023-06-01T06:35:31;12.90;99.90
23116;DHT22;11727;52.134;5.052;2023-06-01T06:37:56;12.90;99.90
23116;DHT22;11727;52.134;5.052;2023-06-01T06:40:22;13.00;99.90
23116;DHT22;11727;52.134;5.052;2023-06-01T06:42:47;13.00;99.90
23116;DHT22;11727;52.134;5.052;2023-06-01T06:45:14;13.00;99.90
23116;DHT22;11727;52.134;5.052;2023-06-01T06:47:40;13.00;99.90
23116;DHT22;11727;52.134;5.052;2023-06-01T06:50:07;13.00;99.90
23116;DHT22;11727;52.134;5.052;2023-06-01T06:52:33;13.10;99.90
23116;DHT22;11727;52.134;5.052;2023-06-01T06:54:58;13.20;99.90
23116;DHT22;11727;52.134;5.052;2023-06-01T06:57:24;13.20;99.90
23116;DHT22;11727;52.134;5.052;2023-06-01T06:59:50;13.20;99.90
23116;DHT22;11727;52.134;5.052;2023-06-01T07:02:16;13.30;99.90
23116;DHT22;11727;52.134;5.052;2023-06-01T07:04:41;13.30;99.90
23116;DHT22;11727;52.134;5.052;2023-06-01T07:07:07;13.40;99.90
23116;DHT22;11727;52.134;5.052;2023-06-01T07:09:33;13.30;99.90
23116;DHT22;11727;52.134;5.052;2023-06-01T07:11:58;13.30;99.90
23116;DHT22;11727;52.134;5.052;2023-06-01T07:14:24;13.40;99.90
23116;DHT22;11727;52.134;5.052;2023-06-01T07:16:50;13.40;99.90
23116;DHT22;11727;52.134;5.052;2023-06-01T07:19:16;13.40;99.90
23116;DHT22;11727;52.134;5.052;2023-06-01T07:21:42;13.40;99.90
23116;DHT22;11727;52.134;5.052;2023-06-01T07:24:07;13.40;99.90
23116;DHT22;11727;52.134;5.052;2023-06-01T07:26:33;13.40;99.90
23116;DHT22;11727;52.134;5.052;2023-06-01T07:28:59;13.50;99.90
23116;DHT22;11727;52.134;5.052;2023-06-01T07:31:25;13.50;99.90
23116;DHT22;11727;52.134;5.052;2023-06-01T07:33:53;13.60;99.90
23116;DHT22;11727;52.134;5.052;2023-06-01T07:36:21;13.60;99.90
23116;DHT22;11727;52.134;5.052;2023-06-01T07:38:49;13.70;99.90
23116;DHT22;11727;52.134;5.052;2023-06-01T07:41:14;13.70;99.90
23116;DHT22;11727;52.134;5.052;2023-06-01T07:43:40;13.80;99.90
23116;DHT22;11727;52.134;5.052;2023-06-01T07:46:06;13.80;99.90
23116;DHT22;11727;52.134;5.052;2023-06-01T07:48:31;13.90;99.90
23116;DHT22;11727;52.134;5.052;2023-06-01T07:51:02;13.90;99.90
23116;DHT22;11727;52.134;5.052;2023-06-01T07:53:28;14.00;99.90
23116;DHT22;11727;52.134;5.052;2023-06-01T07:55:54;14.10;99.90
23116;DHT22;11727;52.134;5.052;2023-06-01T07:58:19;14.20;99.90
23116;DHT22;11727;52.134;5.052;2023-06-01T08:00:45;14.30;99.90
23116;DHT22;11727;52.134;5.052;2023-06-01T08:03:10;14.60;99.90
23116;DHT22;11727;52.134;5.052;2023-06-01T08:05:36;14.70;99.90
23116;DHT22;11727;52.134;5.052;2023-06-01T08:08:02;14.80;99.90
23116;DHT22;11727;52.134;5.052;2023-06-01T08:10:28;14.70;99.90
23116;DHT22;11727;52.134;5.052;2023-06-01T08:12:54;14.70;99.90
23116;DHT22;11727;52.134;5.052;2023-06-01T08:15:22;14.60;99.90
23116;DHT22;11727;52.134;5.052;2023-06-01T08:17:49;14.70;99.90
23116;DHT22;11727;52.134;5.052;2023-06-01T08:20:16;14.70;99.90
23116;DHT22;11727;52.134;5.052;2023-06-01T08:22:47;14.70;99.90
23116;DHT22;11727;52.134;5.052;2023-06-01T08:25:13;14.80;99.90
23116;DHT22;11727;52.134;5.052;2023-06-01T08:27:39;14.80;99.90
23116;DHT22;11727;52.134;5.052;2023-06-01T08:30:06;14.90;99.90
23116;DHT22;11727;52.134;5.052;2023-06-01T08:32:32;15.00;99.90
23116;DHT22;11727;52.134;5.052;2023-06-01T08:34:58;15.30;99.90
23116;DHT22;11727;52.134;5.052;2023-06-01T08:37:24;15.50;99.90
23116;DHT22;11727;52.134;5.052;2023-06-01T08:39:49;15.50;99.90
23116;DHT22;11727;52.134;5.052;2023-06-01T08:44:54;15.60;99.90
23116;DHT22;11727;52.134;5.052;2023-06-01T08:47:22;15.60;99.90
23116;DHT22;11727;52.134;5.052;2023-06-01T08:49:50;15.50;99.90
23116;DHT22;11727;52.134;5.052;2023-06-01T08:52:19;15.50;99.90
23116;DHT22;11727;52.134;5.052;2023-06-01T08:54:46;15.60;99.90
23116;DHT22;11727;52.134;5.052;2023-06-01T08:57:12;15.70;99.90
23116;DHT22;11727;52.134;5.052;2023-06-01T08:59:37;15.70;99.90
23116;DHT22;11727;52.134;5.052;2023-06-01T09:02:05;15.60;99.90
23116;DHT22;11727;52.134;5.052;2023-06-01T09:04:34;15.70;99.90
23116;DHT22;11727;52.134;5.052;2023-06-01T09:07:03;15.50;99.90
23116;DHT22;11727;52.134;5.052;2023-06-01T09:09:28;15.70;99.90
23116;DHT22;11727;52.134;5.052;2023-06-01T09:12:23;15.90;99.90
23116;DHT22;11727;52.134;5.052;2023-06-01T09:14:50;15.90;99.90
23116;DHT22;11727;52.134;5.052;2023-06-01T09:17:23;15.90;99.90
23116;DHT22;11727;52.134;5.052;2023-06-01T09:19:53;15.90;99.90
23116;DHT22;11727;52.134;5.052;2023-06-01T09:22:18;16.10;99.90
23116;DHT22;11727;52.134;5.052;2023-06-01T09:24:58;16.30;99.90
23116;DHT22;11727;52.134;5.052;2023-06-01T09:27:24;16.40;99.90
23116;DHT22;11727;52.134;5.052;2023-06-01T09:29:58;16.40;99.90
23116;DHT22;11727;52.134;5.052;2023-06-01T09:32:27;16.30;99.90
23116;DHT22;11727;52.134;5.052;2023-06-01T09:34:53;16.20;99.90
23116;DHT22;11727;52.134;5.052;2023-06-01T09:37:20;16.20;99.90
23116;DHT22;11727;52.134;5.052;2023-06-01T09:39:46;16.10;99.90
23116;DHT22;11727;52.134;5.052;2023-06-01T09:42:11;16.10;99.90
23116;DHT22;11727;52.134;5.052;2023-06-01T09:44:38;16.10;99.90
23116;DHT22;11727;52.134;5.052;2023-06-01T09:49:34;16.30;99.90
23116;DHT22;11727;52.134;5.052;2023-06-01T09:54:38;16.40;99.90
23116;DHT22;11727;52.134;5.052;2023-06-01T09:57:04;16.80;99.90
23116;DHT22;11727;52.134;5.052;2023-06-01T09:59:41;17.10;99.90
23116;DHT22;11727;52.134;5.052;2023-06-01T10:02:07;17.20;99.90
23116;DHT22;11727;52.134;5.052;2023-06-01T10:04:39;17.30;99.90
23116;DHT22;11727;52.134;5.052;2023-06-01T10:07:05;17.30;99.90
23116;DHT22;11727;52.134;5.052;2023-06-01T10:09:31;17.40;99.90
23116;DHT22;11727;52.134;5.052;2023-06-01T10:11:59;17.50;99.90
23116;DHT22;11727;52.134;5.052;2023-06-01T10:14:25;17.30;99.90
23116;DHT22;11727;52.134;5.052;2023-06-01T10:16:53;17.10;99.90
23116;DHT22;11727;52.134;5.052;2023-06-01T10:19:20;16.80;99.90
23116;DHT22;11727;52.134;5.052;2023-06-01T10:21:46;16.80;99.90
23116;DHT22;11727;52.134;5.052;2023-06-01T10:24:13;16.90;99.90
23116;DHT22;11727;52.134;5.052;2023-06-01T10:26:48;17.00;99.90
23116;DHT22;11727;52.134;5.052;2023-06-01T10:29:18;17.10;99.90
23116;DHT22;11727;52.134;5.052;2023-06-01T10:31:44;17.20;99.90
23116;DHT22;11727;52.134;5.052;2023-06-01T10:34:11;17.30;99.90
23116;DHT22;11727;52.134;5.052;2023-06-01T10:39:28;17.20;99.90
23116;DHT22;11727;52.134;5.052;2023-06-01T10:41:59;17.30;99.90
23116;DHT22;11727;52.134;5.052;2023-06-01T10:44:47;17.30;99.90
23116;DHT22;11727;52.134;5.052;2023-06-01T10:52:35;17.60;99.90
23116;DHT22;11727;52.134;5.052;2023-06-01T10:57:39;17.60;99.90
23116;DHT22;11727;52.134;5.052;2023-06-01T11:05:38;17.30;99.90
23116;DHT22;11727;52.134;5.052;2023-06-01T11:08:05;17.40;99.90
23116;DHT22;11727;52.134;5.052;2023-06-01T11:13:35;17.30;99.90
23116;DHT22;11727;52.134;5.052;2023-06-01T11:18:53;17.40;99.90
23116;DHT22;11727;52.134;5.052;2023-06-01T11:21:39;17.50;99.90
23116;DHT22;11727;52.134;5.052;2023-06-01T11:24:16;17.60;99.90
23116;DHT22;11727;52.134;5.052;2023-06-01T11:26:44;17.70;99.90
23116;DHT22;11727;52.134;5.052;2023-06-01T11:29:10;17.60;99.90
23116;DHT22;11727;52.134;5.052;2023-06-01T11:31:42;17.60;99.90
23116;DHT22;11727;52.134;5.052;2023-06-01T11:34:10;17.50;99.90
23116;DHT22;11727;52.134;5.052;2023-06-01T11:36:43;17.50;99.90
23116;DHT22;11727;52.134;5.052;2023-06-01T11:39:26;17.30;99.90
23116;DHT22;11727;52.134;5.052;2023-06-01T11:44:38;17.50;99.90
23116;DHT22;11727;52.134;5.052;2023-06-01T11:47:05;17.60;99.90
23116;DHT22;11727;52.134;5.052;2023-06-01T11:49:39;17.60;99.90
23116;DHT22;11727;52.134;5.052;2023-06-01T11:52:08;17.60;99.90
23116;DHT22;11727;52.134;5.052;2023-06-01T11:54:34;17.50;99.90
23116;DHT22;11727;52.134;5.052;2023-06-01T11:57:02;17.40;99.90
23116;DHT22;11727;52.134;5.052;2023-06-01T11:59:40;17.40;99.90
23116;DHT22;11727;52.134;5.052;2023-06-01T12:02:22;17.40;99.90
23116;DHT22;11727;52.134;5.052;2023-06-01T12:05:00;17.30;99.90
23116;DHT22;11727;52.134;5.052;2023-06-01T12:07:31;17.20;99.90
23116;DHT22;11727;52.134;5.052;2023-06-01T12:09:57;17.10;99.90
23116;DHT22;11727;52.134;5.052;2023-06-01T12:12:26;17.00;99.90
23116;DHT22;11727;52.134;5.052;2023-06-01T12:14:54;16.90;99.90
23116;DHT22;11727;52.134;5.052;2023-06-01T12:17:20;16.80;99.90
23116;DHT22;11727;52.134;5.052;2023-06-01T12:19:50;16.80;99.90
23116;DHT22;11727;52.134;5.052;2023-06-01T12:22:16;16.80;99.90
23116;DHT22;11727;52.134;5.052;2023-06-01T12:24:42;16.60;99.90
23116;DHT22;11727;52.134;5.052;2023-06-01T12:27:17;16.50;99.90
23116;DHT22;11727;52.134;5.052;2023-06-01T12:29:47;16.30;99.90
23116;DHT22;11727;52.134;5.052;2023-06-01T12:32:15;16.20;99.90
23116;DHT22;11727;52.134;5.052;2023-06-01T12:34:43;16.10;99.90
23116;DHT22;11727;52.134;5.052;2023-06-01T12:37:19;16.00;99.90
23116;DHT22;11727;52.134;5.052;2023-06-01T12:39:54;15.90;99.90
23116;DHT22;11727;52.134;5.052;2023-06-01T12:42:36;15.90;99.90
23116;DHT22;11727;52.134;5.052;2023-06-01T12:45:03;15.80;99.90
23116;DHT22;11727;52.134;5.052;2023-06-01T12:50:02;15.70;99.90
23116;DHT22;11727;52.134;5.052;2023-06-01T12:52:28;15.60;99.90
23116;DHT22;11727;52.134;5.052;2023-06-01T12:54:53;15.60;99.90
23116;DHT22;11727;52.134;5.052;2023-06-01T12:57:19;15.60;99.90
23116;DHT22;11727;52.134;5.052;2023-06-01T12:59:44;15.50;99.90
23116;DHT22;11727;52.134;5.052;2023-06-01T13:02:10;15.50;99.90
23116;DHT22;11727;52.134;5.052;2023-06-01T13:04:35;15.60;99.90
23116;DHT22;11727;52.134;5.052;2023-06-01T13:07:01;15.50;99.90
23116;DHT22;11727;52.134;5.052;2023-06-01T13:09:27;15.50;99.90
23116;DHT22;11727;52.134;5.052;2023-06-01T13:11:53;15.50;99.90
23116;DHT22;11727;52.134;5.052;2023-06-01T13:14:19;15.50;99.90
23116;DHT22;11727;52.134;5.052;2023-06-01T13:16:44;15.40;99.90
23116;DHT22;11727;52.134;5.052;2023-06-01T13:19:10;15.40;99.90
23116;DHT22;11727;52.134;5.052;2023-06-01T13:21:36;15.30;99.90
23116;DHT22;11727;52.134;5.052;2023-06-01T13:24:02;15.30;99.90
23116;DHT22;11727;52.134;5.052;2023-06-01T13:26:28;15.30;99.90
23116;DHT22;11727;52.134;5.052;2023-06-01T13:28:54;15.20;99.90
23116;DHT22;11727;52.134;5.052;2023-06-01T13:31:20;15.20;99.90
23116;DHT22;11727;52.134;5.052;2023-06-01T13:33:46;15.30;99.90
23116;DHT22;11727;52.134;5.052;2023-06-01T13:36:11;15.30;99.90
23116;DHT22;11727;52.134;5.052;2023-06-01T13:38:37;15.30;99.90
23116;DHT22;11727;52.134;5.052;2023-06-01T13:41:03;15.40;99.90
23116;DHT22;11727;52.134;5.052;2023-06-01T13:43:28;15.50;99.90
23116;DHT22;11727;52.134;5.052;2023-06-01T13:45:54;15.50;99.90
23116;DHT22;11727;52.134;5.052;2023-06-01T13:48:20;15.50;99.90
23116;DHT22;11727;52.134;5.052;2023-06-01T13:50:45;15.50;99.90
23116;DHT22;11727;52.134;5.052;2023-06-01T13:53:11;15.50;99.90
23116;DHT22;11727;52.134;5.052;2023-06-01T13:55:37;15.60;99.90
23116;DHT22;11727;52.134;5.052;2023-06-01T13:58:04;15.60;99.90
23116;DHT22;11727;52.134;5.052;2023-06-01T14:00:29;15.60;99.90
23116;DHT22;11727;52.134;5.052;2023-06-01T14:02:55;15.60;99.90
23116;DHT22;11727;52.134;5.052;2023-06-01T14:05:20;15.60;99.90
23116;DHT22;11727;52.134;5.052;2023-06-01T14:07:46;15.60;99.90
23116;DHT22;11727;52.134;5.052;2023-06-01T14:10:12;15.50;99.90
23116;DHT22;11727;52.134;5.052;2023-06-01T14:12:39;15.50;99.90
23116;DHT22;11727;52.134;5.052;2023-06-01T14:15:06;15.50;99.90
23116;DHT22;11727;52.134;5.052;2023-06-01T14:17:32;15.40;99.90
23116;DHT22;11727;52.134;5.052;2023-06-01T14:19:57;15.40;99.90
23116;DHT22;11727;52.134;5.052;2023-06-01T14:22:23;15.30;99.90
23116;DHT22;11727;52.134;5.052;2023-06-01T14:24:49;15.30;99.90
23116;DHT22;11727;52.134;5.052;2023-06-01T14:27:14;15.30;99.90
23116;DHT22;11727;52.134;5.052;2023-06-01T14:29:40;15.30;99.90
23116;DHT22;11727;52.134;5.052;2023-06-01T14:32:06;15.20;99.90
23116;DHT22;11727;52.134;5.052;2023-06-01T14:34:32;15.10;99.90
23116;DHT22;11727;52.134;5.052;2023-06-01T14:36:57;15.10;99.90
23116;DHT22;11727;52.134;5.052;2023-06-01T14:39:23;15.20;99.90
23116;DHT22;11727;52.134;5.052;2023-06-01T14:41:50;15.20;99.90
23116;DHT22;11727;52.134;5.052;2023-06-01T14:44:16;15.20;99.90
23116;DHT22;11727;52.134;5.052;2023-06-01T14:46:41;15.20;99.90
23116;DHT22;11727;52.134;5.052;2023-06-01T14:49:07;15.20;99.90
23116;DHT22;11727;52.134;5.052;2023-06-01T14:51:33;15.30;99.90
23116;DHT22;11727;52.134;5.052;2023-06-01T14:53:58;15.30;99.90
23116;DHT22;11727;52.134;5.052;2023-06-01T14:56:24;15.30;99.90
23116;DHT22;11727;52.134;5.052;2023-06-01T14:58:51;15.30;99.90
23116;DHT22;11727;52.134;5.052;2023-06-01T15:01:17;15.20;99.90
23116;DHT22;11727;52.134;5.052;2023-06-01T15:03:43;15.20;99.90
23116;DHT22;11727;52.134;5.052;2023-06-01T15:06:08;15.20;99.90
23116;DHT22;11727;52.134;5.052;2023-06-01T15:08:34;15.20;99.90
23116;DHT22;11727;52.134;5.052;2023-06-01T15:11:00;15.20;99.90
23116;DHT22;11727;52.134;5.052;2023-06-01T15:13:25;15.30;99.90
23116;DHT22;11727;52.134;5.052;2023-06-01T15:15:51;15.30;99.90
23116;DHT22;11727;52.134;5.052;2023-06-01T15:18:16;15.40;99.90
23116;DHT22;11727;52.134;5.052;2023-06-01T15:20:42;15.40;99.90
23116;DHT22;11727;52.134;5.052;2023-06-01T15:23:09;15.40;99.90
23116;DHT22;11727;52.134;5.052;2023-06-01T15:25:34;15.50;99.90
23116;DHT22;11727;52.134;5.052;2023-06-01T15:28:00;15.50;99.90
23116;DHT22;11727;52.134;5.052;2023-06-01T15:30:26;15.40;99.90
23116;DHT22;11727;52.134;5.052;2023-06-01T15:32:54;15.40;99.90
23116;DHT22;11727;52.134;5.052;2023-06-01T15:35:19;15.40;99.90
23116;DHT22;11727;52.134;5.052;2023-06-01T15:37:45;15.40;99.90
23116;DHT22;11727;52.134;5.052;2023-06-01T15:40:14;15.40;99.90
23116;DHT22;11727;52.134;5.052;2023-06-01T15:42:41;15.40;99.90
23116;DHT22;11727;52.134;5.052;2023-06-01T15:45:07;15.50;99.90
23116;DHT22;11727;52.134;5.052;2023-06-01T15:47:32;15.40;99.90
23116;DHT22;11727;52.134;5.052;2023-06-01T15:49:58;15.30;99.90
23116;DHT22;11727;52.134;5.052;2023-06-01T15:52:24;15.30;99.90
23116;DHT22;11727;52.134;5.052;2023-06-01T15:54:49;15.30;99.90
23116;DHT22;11727;52.134;5.052;2023-06-01T15:57:15;15.20;99.90
23116;DHT22;11727;52.134;5.052;2023-06-01T15:59:41;15.20;99.90
23116;DHT22;11727;52.134;5.052;2023-06-01T16:02:08;15.10;99.90
23116;DHT22;11727;52.134;5.052;2023-06-01T16:04:33;15.20;99.90
23116;DHT22;11727;52.134;5.052;2023-06-01T16:06:59;15.10;99.90
23116;DHT22;11727;52.134;5.052;2023-06-01T16:09:24;15.10;99.90
23116;DHT22;11727;52.134;5.052;2023-06-01T16:11:50;15.10;99.90
23116;DHT22;11727;52.134;5.052;2023-06-01T16:14:16;15.00;99.90